Time;durP1;ratioP1;P1;durP2;ratioP2;P2;SDS_P1;SDS_P2;PMS_P1;PMS_P2;Temp;Humidity;BMP_temperature;BMP_pressure;BME280_temperature;BME280_humidity;BME280_pressure;Samples;Min_cycle;Max_cycle;Signal;HPM_P1;HPM_P2
2022/12/09 00:00:28;;;;;;;55.50;23.33;;;;;;;5.60;100.00;100726.88;5037779;28;20798;-78
2022/12/09 00:02:53;;;;;;;45.72;23.42;;;;;;;4.97;100.00;100609.06;5042922;28;20758;-78
2022/12/09 00:05:19;;;;;;;49.72;20.48;;;;;;;4.93;100.00;100619.34;5047670;28;20057;-78
2022/12/09 00:07:44;;;;;;;51.17;25.10;;;;;;;5.58;100.00;100733.75;5024628;28;20079;-77
2022/12/09 00:10:10;;;;;;;65.10;26.75;;;;;;;5.55;100.00;100728.44;4998611;28;20568;-76
2022/12/09 00:12:35;;;;;;;58.35;24.88;;;;;;;5.41;100.00;100726.41;5030494;28;20481;-77
2022/12/09 00:15:01;;;;;;;61.10;25.02;;;;;;;5.42;100.00;100704.72;5010110;28;20144;-77
2022/12/09 00:17:26;;;;;;;56.03;27.05;;;;;;;5.68;100.00;100740.94;5019116;28;20041;-77
2022/12/09 00:19:51;;;;;;;54.10;24.52;;;;;;;5.76;100.00;100767.16;5018217;28;20392;-76
2022/12/09 00:22:17;;;;;;;49.22;25.85;;;;;;;5.78;100.00;100761.16;5025622;28;20108;-75
2022/12/09 00:24:42;;;;;;;58.67;28.05;;;;;;;5.62;100.00;100752.09;5024733;28;20103;-78
2022/12/09 00:27:08;;;;;;;60.70;27.60;;;;;;;5.67;100.00;100749.63;5022117;28;20044;-75
2022/12/09 00:29:33;;;;;;;66.55;28.23;;;;;;;5.51;100.00;100711.91;5005981;28;20036;-75
2022/12/09 00:31:59;;;;;;;58.90;28.95;;;;;;;4.79;100.00;100634.59;5021678;28;20041;-77
2022/12/09 00:34:24;;;;;;;47.22;25.58;;;;;;;5.59;100.00;100740.72;5021767;28;20870;-76
2022/12/09 00:36:49;;;;;;;54.90;26.25;;;;;;;4.85;100.00;100612.22;5018572;28;20425;-77
2022/12/09 00:39:16;;;;;;;45.97;23.33;;;;;;;5.49;100.00;100705.78;5016812;28;20046;-77
2022/12/09 00:41:42;;;;;;;55.67;25.27;;;;;;;5.65;100.00;100714.84;5019314;28;20037;-77
2022/12/09 00:44:08;;;;;;;58.85;26.60;;;;;;;5.53;100.00;100680.72;5030279;28;20057;-76
2022/12/09 00:46:34;;;;;;;59.15;28.95;;;;;;;5.68;100.00;100710.59;5019383;28;20124;-77
2022/12/09 00:48:59;;;;;;;71.70;29.08;;;;;;;5.74;100.00;100715.06;5024744;28;20140;-76
2022/12/09 00:51:25;;;;;;;66.40;30.08;;;;;;;5.53;100.00;100681.59;5028690;28;20481;-75
2022/12/09 00:53:54;;;;;;;54.50;27.70;;;;;;;4.47;100.00;100551.41;5039939;28;20033;-74
2022/12/09 00:56:25;;;;;;;55.92;28.55;;;;;;;5.35;100.00;100663.78;5036540;28;20112;-77
2022/12/09 00:58:51;;;;;;;53.60;24.23;;;;;;;5.45;100.00;100673.56;5019270;28;20062;-78
2022/12/09 01:01:17;;;;;;;59.42;28.30;;;;;;;5.77;100.00;100733.38;5021737;28;20048;-76
2022/12/09 01:03:42;;;;;;;48.92;23.70;;;;;;;4.99;100.00;100586.59;5026069;28;20671;-77
2022/12/09 01:06:10;;;;;;;49.63;26.38;;;;;;;5.80;100.00;100723.03;5041585;28;20108;-78
2022/12/09 01:08:37;;;;;;;46.50;25.42;;;;;;;4.63;100.00;100544.91;5052515;28;20052;-76
2022/12/09 01:11:13;;;;;;;88.93;34.83;;;;;;;5.27;100.00;100701.75;5035639;28;20490;-78
2022/12/09 01:13:39;;;;;;;51.22;23.58;;;;;;;5.02;100.00;100675.06;5037722;28;20055;-76
2022/12/09 01:16:23;;;;;;;47.97;21.02;;;;;;;4.57;100.00;100568.16;5048117;28;20072;-78
2022/12/09 01:18:51;;;;;;;63.72;23.40;;;;;;;5.03;100.00;100708.06;5045884;28;20503;-77
2022/12/09 01:21:17;;;;;;;43.92;23.00;;;;;;;5.24;100.00;100688.63;5044471;28;20064;-79
2022/12/09 01:23:43;;;;;;;53.95;24.77;;;;;;;4.53;100.00;100563.72;5052074;28;20032;-79
2022/12/09 01:26:09;;;;;;;46.40;23.73;;;;;;;4.83;100.00;100592.25;5023230;28;20100;-76
2022/12/09 01:28:36;;;;;;;46.28;22.98;;;;;;;5.43;100.00;100698.69;5037406;28;20491;-78
2022/12/09 01:31:10;;;;;;;51.22;24.58;;;;;;;5.58;100.00;100728.56;5047485;28;20048;-79
2022/12/09 01:33:36;;;;;;;57.15;22.75;;;;;;;5.61;100.00;100741.63;5044475;28;20048;-77
2022/12/09 01:36:07;;;;;;;53.55;21.45;;;;;;;5.56;100.00;100744.13;5045339;28;20055;-77
2022/12/09 01:38:32;;;;;;;55.05;25.80;;;;;;;5.45;100.00;100724.75;5039451;28;20127;-77
2022/12/09 01:40:58;;;;;;;50.40;24.55;;;;;;;5.52;100.00;100746.59;5043044;28;20051;-76
2022/12/09 01:43:24;;;;;;;42.33;22.30;;;;;;;5.59;100.00;100728.56;5048048;28;20412;-77
2022/12/09 01:45:50;;;;;;;49.53;21.40;;;;;;;4.79;100.00;100593.88;5046165;28;20137;-78
2022/12/09 01:48:22;;;;;;;45.20;21.73;;;;;;;5.65;100.00;100733.94;5040489;28;20847;-79
2022/12/09 01:51:09;;;;;;;33.92;19.42;;;;;;;5.37;100.00;100727.16;5048603;28;20068;-78
2022/12/09 01:53:38;;;;;;;39.45;21.80;;;;;;;5.60;100.00;100747.69;5053131;28;20045;-78
2022/12/09 01:56:12;;;;;;;47.20;20.15;;;;;;;5.43;100.00;100701.31;5049228;28;20060;-78
2022/12/09 01:58:38;;;;;;;39.17;21.45;;;;;;;5.63;100.00;100717.41;5050049;28;20072;-75
2022/12/09 02:01:03;;;;;;;41.92;21.65;;;;;;;5.58;100.00;100718.16;5043075;28;20506;-77
2022/12/09 02:03:29;;;;;;;43.05;20.90;;;;;;;5.05;100.00;100650.88;5057492;28;20727;-76
2022/12/09 02:05:55;;;;;;;45.20;20.42;;;;;;;4.85;100.00;100616.56;5053580;28;20118;-77
2022/12/09 02:08:21;;;;;;;43.08;20.75;;;;;;;5.28;100.00;100682.69;5052128;28;20123;-77
2022/12/09 02:11:14;;;;;;;51.92;22.13;;;;;;;5.52;100.00;100704.97;5029215;28;20119;-77
2022/12/09 02:14:09;;;;;;;37.30;18.60;;;;;;;5.37;100.00;100708.06;5045651;28;20087;-76
2022/12/09 02:16:51;;;;;;;32.58;20.50;;;;;;;4.78;100.00;100562.66;5056024;28;20051;-77
2022/12/09 02:19:40;;;;;;;51.90;22.40;;;;;;;5.61;100.00;100700.00;5045068;28;20127;-76
2022/12/09 02:22:07;;;;;;;43.80;20.88;;;;;;;5.31;100.00;100655.88;5055668;28;20511;-77
2022/12/09 02:24:41;;;;;;;42.75;22.55;;;;;;;5.60;100.00;100688.69;5044472;28;20574;-76
2022/12/09 02:27:07;;;;;;;40.25;19.58;;;;;;;5.60;100.00;100688.69;5046493;28;20083;-77
2022/12/09 02:29:52;;;;;;;45.80;21.35;;;;;;;5.53;100.00;100691.13;5041576;28;20477;-76
2022/12/09 02:33:03;;;;;;;47.47;21.95;;;;;;;5.51;100.00;100698.88;5063619;28;20067;-75
2022/12/09 02:35:57;;;;;;;40.42;20.10;;;;;;;5.49;100.00;100700.56;5038849;28;20051;-76
2022/12/09 02:38:27;;;;;;;41.88;23.02;;;;;;;4.96;100.00;100581.28;5038386;28;20130;-76
2022/12/09 02:41:17;;;;;;;49.95;25.05;;;;;;;4.84;100.00;100562.78;5042122;28;20103;-77
2022/12/09 02:43:50;;;;;;;48.75;22.45;;;;;;;5.33;100.00;100651.59;5037857;28;20509;-76
2022/12/09 02:46:19;;;;;;;35.33;19.58;;;;;;;5.35;100.00;100648.16;5040420;28;20060;-76
2022/12/09 02:48:52;;;;;;;38.92;20.17;;;;;;;4.76;100.00;100546.13;5048311;28;20156;-76
2022/12/09 02:51:19;;;;;;;32.90;18.53;;;;;;;4.74;100.00;100556.47;5050324;28;20041;-75
2022/12/09 02:53:50;;;;;;;47.90;21.15;;;;;;;5.54;100.00;100695.47;5052918;28;20033;-76
2022/12/09 02:56:17;;;;;;;41.78;19.10;;;;;;;5.56;100.00;100678.19;5047494;28;20081;-76
2022/12/09 02:58:43;;;;;;;43.92;19.88;;;;;;;5.53;100.00;100658.16;5047017;28;20503;-77
2022/12/09 03:01:35;;;;;;;43.17;19.65;;;;;;;5.41;100.00;100640.53;5048188;28;20048;-76
2022/12/09 03:04:01;;;;;;;49.53;21.13;;;;;;;5.44;100.00;100644.94;5032730;28;20155;-76
2022/12/09 03:06:35;;;;;;;44.05;25.13;;;;;;;4.98;100.00;100543.22;5043994;28;20492;-76
2022/12/09 03:09:13;;;;;;;37.80;20.13;;;;;;;4.75;100.00;100506.28;5044729;28;20051;-76
2022/12/09 03:11:40;;;;;;;55.03;22.40;;;;;;;5.01;100.00;100547.59;5040294;28;20029;-79
2022/12/09 03:14:12;;;;;;;47.15;23.58;;;;;;;5.59;100.00;100673.91;5046575;28;20126;-77
2022/12/09 03:16:46;;;;;;;43.35;22.92;;;;;;;5.55;100.00;100650.38;5046143;28;20045;-77
2022/12/09 03:19:41;;;;;;;41.33;23.13;;;;;;;5.55;100.00;100677.31;5035912;28;20052;-77
2022/12/09 03:22:12;;;;;;;46.83;23.27;;;;;;;5.55;100.00;100677.31;5051000;28;20052;-77
2022/12/09 03:24:44;;;;;;;44.75;23.42;;;;;;;5.63;100.00;100683.56;5035561;28;20420;-77
2022/12/09 03:27:17;;;;;;;41.90;23.15;;;;;;;5.28;100.00;100673.16;5041647;28;20045;-77
2022/12/09 03:29:46;;;;;;;51.07;23.27;;;;;;;5.47;100.00;100674.50;5060722;28;20033;-76
2022/12/09 03:32:16;;;;;;;46.53;21.05;;;;;;;5.03;100.00;100588.44;5048184;28;20507;-77
2022/12/09 03:34:45;;;;;;;52.03;22.27;;;;;;;5.31;100.00;100653.25;5039195;28;20049;-76
2022/12/09 03:37:15;;;;;;;52.92;24.02;;;;;;;4.99;100.00;100572.72;5040882;28;20052;-77
2022/12/09 03:39:42;;;;;;;49.35;25.27;;;;;;;5.45;100.00;100644.94;5043929;28;20045;-77
2022/12/09 03:42:41;;;;;;;40.58;20.80;;;;;;;5.48;100.00;100639.84;5039318;28;20029;-76
2022/12/09 03:45:11;;;;;;;57.55;23.98;;;;;;;5.46;100.00;100653.66;5042942;28;20037;-75
2022/12/09 03:47:37;;;;;;;49.63;21.92;;;;;;;5.56;100.00;100671.25;5051419;28;20056;-76
2022/12/09 03:50:04;;;;;;;53.85;22.00;;;;;;;4.64;100.00;100500.78;5045971;28;20559;-77
2022/12/09 03:52:40;;;;;;;54.33;22.05;;;;;;;4.86;100.00;100545.50;5022906;28;20384;-78
2022/12/09 03:55:20;;;;;;;44.72;20.60;;;;;;;5.35;100.00;100642.09;5039290;28;20087;-77
2022/12/09 03:57:49;;;;;;;37.17;17.52;;;;;;;4.70;100.00;100559.81;5038951;28;20068;-78
2022/12/09 04:00:17;;;;;;;31.70;17.33;;;;;;;4.49;100.00;100530.69;5045925;28;20045;-77
2022/12/09 04:02:43;;;;;;;40.75;18.58;;;;;;;5.29;100.00;100642.81;5029238;28;20477;-78
2022/12/09 04:05:08;;;;;;;38.97;19.05;;;;;;;4.81;100.00;100561.00;5044492;28;20137;-77
2022/12/09 04:07:34;;;;;;;40.63;20.20;;;;;;;4.82;100.00;100593.97;5014017;28;20052;-78
2022/12/09 04:09:59;;;;;;;43.15;21.95;;;;;;;5.26;100.00;100629.72;5026472;28;20053;-78
2022/12/09 04:12:25;;;;;;;67.15;23.45;;;;;;;5.07;100.00;100586.78;5027004;28;20049;-77
2022/12/09 04:14:50;;;;;;;44.20;20.98;;;;;;;5.61;100.00;100679.16;5034318;28;20828;-76
2022/12/09 04:17:16;;;;;;;43.17;20.52;;;;;;;4.23;100.00;100438.25;5029107;28;20042;-77
2022/12/09 04:19:41;;;;;;;39.78;21.48;;;;;;;5.21;100.00;100621.81;5034225;28;20057;-76
2022/12/09 04:22:07;;;;;;;53.70;24.30;;;;;;;5.32;100.00;100626.41;5021522;28;20050;-78
2022/12/09 04:24:32;;;;;;;44.15;22.60;;;;;;;5.61;100.00;100668.75;5020225;28;20058;-78
2022/12/09 04:26:58;;;;;;;36.25;18.67;;;;;;;4.62;100.00;100501.59;5029563;28;20049;-76
2022/12/09 04:29:23;;;;;;;35.00;20.67;;;;;;;5.68;100.00;100683.69;5035151;28;20033;-78
2022/12/09 04:31:48;;;;;;;39.72;22.17;;;;;;;5.59;100.00;100701.66;5025256;28;20045;-77
2022/12/09 04:34:14;;;;;;;44.83;21.83;;;;;;;4.89;100.00;100568.09;5017578;28;20045;-76
2022/12/09 04:36:39;;;;;;;41.67;20.77;;;;;;;4.96;100.00;100596.91;5016477;28;20248;-76
2022/12/09 04:39:05;;;;;;;47.88;20.73;;;;;;;5.10;100.00;100612.84;5021428;28;20139;-76
2022/12/09 04:41:31;;;;;;;33.10;17.60;;;;;;;5.31;100.00;100668.88;5031983;28;20043;-76
2022/12/09 04:43:56;;;;;;;35.65;20.33;;;;;;;5.26;100.00;100667.03;5018117;28;20057;-76
2022/12/09 04:46:22;;;;;;;44.13;19.38;;;;;;;5.34;100.00;100640.31;5022740;28;20050;-77
2022/12/09 04:48:47;;;;;;;38.72;21.98;;;;;;;5.65;100.00;100684.50;5025069;28;20056;-76
2022/12/09 04:51:15;;;;;;;34.17;16.85;;;;;;;4.55;100.00;100539.53;5027511;28;20057;-77
2022/12/09 04:53:40;;;;;;;34.00;20.73;;;;;;;5.35;100.00;100642.09;5024220;28;20053;-77
2022/12/09 04:56:09;;;;;;;35.47;19.30;;;;;;;4.58;100.00;100557.78;5024239;28;20481;-77
2022/12/09 04:58:34;;;;;;;33.38;18.73;;;;;;;5.28;100.00;100685.28;5021991;28;20045;-77
2022/12/09 05:01:12;;;;;;;37.47;20.92;;;;;;;5.25;100.00;100667.88;5033186;28;20052;-76
2022/12/09 05:03:37;;;;;;;50.13;23.67;;;;;;;5.05;100.00;100624.88;5018829;28;20053;-76
2022/12/09 05:06:09;;;;;;;46.40;20.38;;;;;;;5.39;100.00;100693.38;5037568;28;20055;-76
2022/12/09 05:08:35;;;;;;;40.78;22.58;;;;;;;4.70;100.00;100580.63;5044629;28;20051;-75
2022/12/09 05:11:01;;;;;;;46.60;23.38;;;;;;;5.37;100.00;100702.88;5025455;28;20682;-78
2022/12/09 05:13:26;;;;;;;49.30;25.20;;;;;;;5.25;100.00;100680.88;5043305;28;20071;-79
2022/12/09 05:16:18;;;;;;;37.20;21.13;;;;;;;3.82;100.00;100504.63;5043256;28;20167;-77
2022/12/09 05:18:46;;;;;;;48.83;20.52;;;;;;;4.54;100.00;100581.06;5039707;28;20045;-79
2022/12/09 05:21:15;;;;;;;43.40;21.13;;;;;;;4.53;100.00;100608.75;5042419;28;20100;-76
2022/12/09 05:23:41;;;;;;;47.65;20.52;;;;;;;5.19;100.00;100698.06;5044083;28;20036;-79
2022/12/09 05:26:13;;;;;;;51.33;24.38;;;;;;;4.96;100.00;100674.91;5037821;28;20045;-77
2022/12/09 05:28:38;;;;;;;41.65;20.45;;;;;;;5.26;100.00;100706.03;5040506;28;20087;-77
2022/12/09 05:31:06;;;;;;;42.35;22.95;;;;;;;5.13;100.00;100674.47;5040255;28;20053;-79
2022/12/09 05:33:32;;;;;;;41.28;21.45;;;;;;;5.41;100.00;100709.91;5039971;28;20053;-78
2022/12/09 05:35:58;;;;;;;53.53;23.45;;;;;;;5.15;100.00;100685.78;5041598;28;20099;-78
2022/12/09 05:38:24;;;;;;;45.17;24.85;;;;;;;4.99;100.00;100658.53;5042025;28;20116;-79
2022/12/09 05:40:50;;;;;;;55.83;24.73;;;;;;;4.44;100.00;100600.72;5030029;28;20122;-77
2022/12/09 05:43:15;;;;;;;46.80;24.23;;;;;;;5.35;100.00;100718.44;5041536;28;20136;-77
2022/12/09 05:45:41;;;;;;;41.25;21.40;;;;;;;5.25;100.00;100725.13;5041370;28;20055;-77
2022/12/09 05:48:06;;;;;;;36.85;22.45;;;;;;;5.16;100.00;100732.66;5038951;28;20091;-77
2022/12/09 05:50:32;;;;;;;48.38;22.45;;;;;;;5.16;100.00;100730.06;5036004;28;20186;-78
2022/12/09 05:52:57;;;;;;;37.28;22.83;;;;;;;5.25;100.00;100758.94;5042584;28;20408;-77
2022/12/09 05:55:23;;;;;;;45.95;24.40;;;;;;;5.04;100.00;100711.53;5044134;28;20056;-77
2022/12/09 05:57:48;;;;;;;43.25;17.58;;;;;;;5.12;100.00;100748.16;5053293;28;20443;-76
2022/12/09 06:00:14;;;;;;;41.58;21.52;;;;;;;5.11;100.00;100723.00;5043502;28;20547;-77
2022/12/09 06:02:40;;;;;;;44.00;22.38;;;;;;;4.86;100.00;100678.09;5045945;28;20060;-76
2022/12/09 06:05:06;;;;;;;40.42;21.23;;;;;;;5.21;100.00;100762.28;5042217;28;20056;-77
2022/12/09 06:07:33;;;;;;;48.10;20.45;;;;;;;4.67;100.00;100639.44;5043011;28;20060;-77
2022/12/09 06:09:58;;;;;;;50.95;22.40;;;;;;;5.42;100.00;100774.13;5042273;28;20526;-76
2022/12/09 06:12:24;;;;;;;46.28;22.00;;;;;;;5.27;100.00;100752.06;5047670;28;20123;-76
2022/12/09 06:14:49;;;;;;;40.10;21.05;;;;;;;5.24;100.00;100771.88;5040219;28;20036;-77
2022/12/09 06:17:15;;;;;;;33.22;19.27;;;;;;;5.29;100.00;100759.88;5045436;28;20538;-77
2022/12/09 06:19:40;;;;;;;50.42;22.77;;;;;;;4.71;100.00;100659.50;5045682;28;20376;-75
2022/12/09 06:22:06;;;;;;;39.50;19.55;;;;;;;5.24;100.00;100746.78;5037940;28;20064;-77
2022/12/09 06:24:33;;;;;;;43.95;18.70;;;;;;;5.02;100.00;100708.88;5044479;28;20136;-77
2022/12/09 06:26:58;;;;;;;37.05;19.10;;;;;;;4.76;100.00;100674.38;5042512;28;20041;-76
2022/12/09 06:29:25;;;;;;;41.42;21.13;;;;;;;4.70;100.00;100669.00;5041293;28;20120;-78
2022/12/09 06:31:51;;;;;;;90.35;30.15;;;;;;;4.63;100.00;100667.94;5048195;28;20082;-78
2022/12/09 06:34:17;;;;;;;58.85;22.83;;;;;;;5.08;100.00;100748.06;5044323;28;20083;-78
2022/12/09 06:36:42;;;;;;;126.20;34.97;;;;;;;4.84;100.00;100677.19;5039850;28;20041;-79
2022/12/09 06:39:08;;;;;;;113.88;30.52;;;;;;;4.57;100.00;100599.34;5042922;28;20810;-80
2022/12/09 06:41:34;;;;;;;48.40;22.85;;;;;;;5.57;100.00;100777.13;5017851;28;20029;-77
2022/12/09 06:44:00;;;;;;;36.70;19.88;;;;;;;5.34;100.00;100737.50;5036581;28;20082;-78
2022/12/09 06:46:27;;;;;;;46.13;23.40;;;;;;;5.57;100.00;100784.94;5040865;28;20048;-80
2022/12/09 06:48:54;;;;;;;43.50;19.00;;;;;;;5.47;100.00;100751.69;5037251;28;20052;-75
2022/12/09 06:51:20;;;;;;;44.60;24.95;;;;;;;4.94;100.00;100661.00;5044212;28;20142;-81
2022/12/09 06:53:46;;;;;;;48.63;22.58;;;;;;;5.23;100.00;100734.59;5032476;28;20149;-78
2022/12/09 06:56:13;;;;;;;60.65;29.40;;;;;;;5.45;100.00;100756.84;5048089;28;20049;-79
2022/12/09 06:58:41;;;;;;;41.58;21.92;;;;;;;4.85;100.00;100630.44;5036323;28;20688;-79
2022/12/09 07:01:20;;;;;;;35.53;18.40;;;;;;;5.43;100.00;100787.19;5040513;28;20060;-76
2022/12/09 07:03:53;;;;;;;39.30;21.60;;;;;;;5.36;100.00;100782.66;5030403;28;20060;-81
2022/12/09 07:06:34;;;;;;;43.47;20.42;;;;;;;4.62;100.00;100665.31;5030832;28;20100;-78
2022/12/09 07:09:04;;;;;;;68.82;25.52;;;;;;;4.59;100.00;100654.84;5015133;28;20045;-77
2022/12/09 07:11:30;;;;;;;48.92;21.88;;;;;;;5.43;100.00;100778.47;5010164;28;20586;-77
2022/12/09 07:13:56;;;;;;;54.17;25.45;;;;;;;5.41;100.00;100751.56;5007076;28;20049;-80
2022/12/09 07:16:21;;;;;;;65.63;24.95;;;;;;;5.41;100.00;100751.56;5017780;28;20072;-79
2022/12/09 07:18:47;;;;;;;60.70;24.95;;;;;;;5.43;100.00;100778.47;5017739;28;20484;-81
2022/12/09 07:21:17;;;;;;;52.85;22.42;;;;;;;4.71;100.00;100628.31;5019382;28;20041;-82
2022/12/09 07:23:43;;;;;;;40.88;18.73;;;;;;;4.85;100.00;100666.81;5023673;28;20108;-80
2022/12/09 07:26:09;;;;;;;52.80;23.27;;;;;;;5.09;100.00;100681.31;5010070;28;20450;-77
2022/12/09 07:28:37;;;;;;;51.33;22.23;;;;;;;4.91;100.00;100662.63;5019669;28;20128;-78
2022/12/09 07:31:03;;;;;;;41.88;18.67;;;;;;;4.91;100.00;100657.44;5022603;28;20069;-77
2022/12/09 07:33:29;;;;;;;49.40;22.40;;;;;;;5.39;100.00;100722.00;5024528;28;20129;-80
2022/12/09 07:35:57;;;;;;;61.55;24.27;;;;;;;4.87;100.00;100633.09;5026357;28;20073;-79
2022/12/09 07:38:24;;;;;;;45.95;19.88;;;;;;;5.27;100.00;100749.44;5006172;28;20033;-79
2022/12/09 07:40:50;;;;;;;48.53;22.50;;;;;;;5.59;100.00;100756.34;5025772;28;20052;-79
2022/12/09 07:43:16;;;;;;;39.40;22.15;;;;;;;5.04;100.00;100649.13;5023964;28;20053;-79
2022/12/09 07:45:41;;;;;;;40.42;22.77;;;;;;;5.77;100.00;100761.13;5018288;28;20075;-78
2022/12/09 07:48:09;;;;;;;32.35;20.10;;;;;;;5.54;100.00;100755.34;5028096;28;20461;-79
2022/12/09 07:50:34;;;;;;;46.65;19.83;;;;;;;4.82;100.00;100625.16;5026162;28;20036;-79
2022/12/09 07:53:00;;;;;;;48.25;21.45;;;;;;;5.74;100.00;100781.91;5019448;28;20045;-80
2022/12/09 07:55:25;;;;;;;50.13;23.73;;;;;;;5.16;100.00;100656.38;5013568;28;20579;-80
2022/12/09 07:57:52;;;;;;;47.50;22.95;;;;;;;5.68;100.00;100753.97;5022421;28;20622;-78
2022/12/09 08:00:19;;;;;;;48.15;24.95;;;;;;;5.16;100.00;100671.97;5014926;28;20055;-80
2022/12/09 08:02:44;;;;;;;51.63;26.73;;;;;;;5.88;100.00;100789.22;4995959;28;20477;-79
2022/12/09 08:05:10;;;;;;;48.78;25.83;;;;;;;5.77;100.00;100763.75;5031562;28;20057;-78
2022/12/09 08:07:35;;;;;;;49.67;24.17;;;;;;;5.18;100.00;100668.56;5045171;28;20382;-79
2022/12/09 08:10:01;;;;;;;50.22;27.02;;;;;;;4.79;100.00;100617.25;5037947;28;20076;-80
2022/12/09 08:12:26;;;;;;;53.83;24.42;;;;;;;5.75;100.00;100760.22;5044436;28;20045;-79
2022/12/09 08:14:52;;;;;;;51.92;24.30;;;;;;;5.21;100.00;100670.34;5050897;28;20029;-79
2022/12/09 08:17:18;;;;;;;44.28;24.20;;;;;;;5.14;100.00;100639.84;5051388;28;20040;-77
2022/12/09 08:19:43;;;;;;;44.80;23.73;;;;;;;5.36;100.00;100662.97;5042603;28;20497;-79
2022/12/09 08:22:09;;;;;;;54.55;24.48;;;;;;;6.00;100.00;100787.78;5039665;28;20065;-79
2022/12/09 08:24:34;;;;;;;58.47;32.30;;;;;;;5.89;100.00;100751.00;5041422;28;20057;-79
2022/12/09 08:27:00;;;;;;;62.60;25.75;;;;;;;5.10;100.00;100611.97;5049126;28;20071;-78
2022/12/09 08:29:26;;;;;;;42.97;22.48;;;;;;;5.44;100.00;100669.22;5052830;28;20474;-79
2022/12/09 08:31:51;;;;;;;47.47;23.58;;;;;;;5.13;100.00;100619.84;5048026;28;20712;-78
2022/12/09 08:34:17;;;;;;;47.40;22.88;;;;;;;5.81;100.00;100762.97;5043005;28;20057;-77
2022/12/09 08:36:43;;;;;;;44.40;20.77;;;;;;;5.96;100.00;100767.72;5061815;28;20828;-77
2022/12/09 08:39:10;;;;;;;37.88;23.02;;;;;;;5.21;100.00;100662.56;5049452;28;20045;-76
2022/12/09 08:41:36;;;;;;;50.30;23.63;;;;;;;6.02;100.00;100781.78;5052162;28;20048;-76
2022/12/09 08:44:15;;;;;;;38.78;21.92;;;;;;;6.10;100.00;100782.81;5043448;28;20061;-77
2022/12/09 08:46:46;;;;;;;40.28;20.15;;;;;;;5.82;100.00;100786.44;5042998;28;20746;-76
2022/12/09 08:49:12;;;;;;;51.63;21.52;;;;;;;6.04;100.00;100780.09;5035852;28;20048;-76
2022/12/09 08:51:39;;;;;;;39.08;22.35;;;;;;;5.38;100.00;100678.59;5041413;28;20048;-72
2022/12/09 08:54:05;;;;;;;46.45;21.63;;;;;;;5.79;100.00;100749.91;5047037;28;20052;-75
2022/12/09 08:56:30;;;;;;;78.50;26.75;;;;;;;5.75;100.00;100721.16;5039204;28;20399;-75
2022/12/09 08:58:56;;;;;;;43.28;23.98;;;;;;;5.28;100.00;100628.94;5029821;28;20075;-77
2022/12/09 09:01:33;;;;;;;43.65;21.13;;;;;;;5.88;100.00;100768.38;5054229;28;20134;-77
2022/12/09 09:04:08;;;;;;;60.42;27.15;;;;;;;5.10;100.00;100630.19;5043303;28;20106;-76
2022/12/09 09:06:35;;;;;;;48.63;22.35;;;;;;;5.45;100.00;100652.75;5056110;28;20044;-79
2022/12/09 09:09:00;;;;;;;44.28;24.15;;;;;;;6.23;100.00;100759.69;5052287;28;20043;-77
2022/12/09 09:11:26;;;;;;;41.53;22.25;;;;;;;6.34;100.00;100764.31;5058563;28;20099;-75
2022/12/09 09:13:51;;;;;;;43.63;21.95;;;;;;;6.18;100.00;100735.22;5020798;28;20046;-76
2022/12/09 09:16:19;;;;;;;52.78;24.92;;;;;;;6.17;100.00;100731.75;5049998;28;20049;-75
2022/12/09 09:18:45;;;;;;;61.63;28.48;;;;;;;6.22;100.00;100701.47;5048172;28;20059;-76
2022/12/09 09:21:14;;;;;;;58.40;26.92;;;;;;;5.67;100.00;100604.72;5035385;28;20041;-76
2022/12/09 09:23:41;;;;;;;52.42;26.45;;;;;;;6.32;100.00;100718.16;5042702;28;21484;-76
2022/12/09 09:26:18;;;;;;;52.58;24.80;;;;;;;5.18;100.00;100501.22;5037395;28;20095;-71
2022/12/09 09:28:44;;;;;;;54.33;26.35;;;;;;;6.47;100.00;100722.84;5045293;28;20052;-74
2022/12/09 09:31:13;;;;;;;43.03;24.77;;;;;;;6.43;100.00;100732.31;5047730;28;20049;-75
2022/12/09 09:33:39;;;;;;;44.40;24.27;;;;;;;5.45;100.00;100569.47;5032471;28;20552;-74
2022/12/09 09:36:06;;;;;;;57.60;27.23;;;;;;;5.80;100.00;100646.63;5048961;28;20120;-75
2022/12/09 09:38:32;;;;;;;60.83;32.38;;;;;;;6.12;100.00;100682.13;5052278;28;20048;-73
2022/12/09 09:40:59;;;;;;;52.22;25.85;;;;;;;6.01;100.00;100665.38;5041395;28;20054;-74
2022/12/09 09:43:32;;;;;;;47.53;25.40;;;;;;;6.12;100.00;100671.72;5056122;28;20138;-75
2022/12/09 09:45:58;;;;;;;39.60;21.10;;;;;;;5.80;100.00;100608.44;5047513;28;20041;-77
2022/12/09 09:48:31;;;;;;;47.63;21.73;;;;;;;6.30;100.00;100691.22;5041902;28;20524;-75
2022/12/09 09:51:05;;;;;;;36.80;21.23;;;;;;;6.20;100.00;100710.09;5026110;28;20109;-76
2022/12/09 09:53:34;;;;;;;40.72;20.65;;;;;;;5.67;100.00;100601.22;5041723;28;20492;-75
2022/12/09 09:56:03;;;;;;;96.32;36.35;;;;;;;6.17;100.00;100666.59;5053290;28;20079;-77
2022/12/09 09:58:55;;;;;;;50.60;24.60;;;;;;;6.24;100.00;100680.66;5044114;28;20048;-74
2022/12/09 10:01:24;;;;;;;42.20;23.30;;;;;;;6.12;100.00;100655.22;5055518;28;20106;-74
2022/12/09 10:04:06;;;;;;;40.30;21.60;;;;;;;5.49;100.00;100576.53;5046837;28;20131;-75
2022/12/09 10:06:48;;;;;;;57.70;27.88;;;;;;;5.78;100.00;100586.69;5044178;28;20146;-79
2022/12/09 10:09:42;;;;;;;48.90;24.63;;;;;;;6.31;100.00;100653.88;5036419;28;20072;-74
2022/12/09 10:12:17;;;;;;;42.03;20.15;;;;;;;6.47;100.00;100668.13;5045128;28;20032;-75
2022/12/09 10:15:11;;;;;;;46.42;23.40;;;;;;;6.51;100.00;100634.31;5044471;28;20041;-75
2022/12/09 10:17:54;;;;;;;53.22;23.33;;;;;;;6.43;100.00;100630.66;5044288;28;20048;-73
2022/12/09 10:20:24;;;;;;;55.22;24.75;;;;;;;5.42;100.00;100460.13;5056697;28;20037;-74
2022/12/09 10:22:58;;;;;;;63.15;25.98;;;;;;;5.73;100.00;100505.03;5059819;28;20048;-76
2022/12/09 10:25:29;;;;;;;43.65;25.90;;;;;;;6.23;100.00;100566.88;5044715;28;20063;-75
2022/12/09 10:28:05;;;;;;;58.60;34.17;;;;;;;6.55;100.00;100654.41;5039150;28;20132;-76
2022/12/09 10:30:31;;;;;;;72.22;30.38;;;;;;;5.90;100.00;100505.41;5063957;28;20077;-78
2022/12/09 10:32:56;;;;;;;48.33;28.20;;;;;;;6.53;100.00;100621.31;5053432;28;20119;-77
2022/12/09 10:35:25;;;;;;;56.63;30.95;;;;;;;5.90;100.00;100503.66;5048185;28;20476;-77
2022/12/09 10:37:54;;;;;;;59.28;34.63;;;;;;;6.50;100.00;100597.78;5046032;28;20056;-75
2022/12/09 10:40:34;;;;;;;52.28;28.58;;;;;;;6.51;100.00;100602.19;5038235;28;20496;-76
2022/12/09 10:43:40;;;;;;;69.07;32.65;;;;;;;6.05;100.00;100510.94;5049106;28;20130;-74
2022/12/09 10:46:12;;;;;;;48.50;27.05;;;;;;;6.79;100.00;100610.50;5043978;28;20087;-76
2022/12/09 10:48:47;;;;;;;60.90;28.65;;;;;;;6.21;100.00;100506.91;5044757;28;20064;-76
2022/12/09 10:51:15;;;;;;;66.50;34.70;;;;;;;6.75;100.00;100610.44;5048537;28;20040;-77
2022/12/09 10:53:56;;;;;;;68.60;34.92;;;;;;;6.60;100.00;100562.34;5041091;28;20064;-76
2022/12/09 10:56:29;;;;;;;53.67;33.85;;;;;;;6.13;100.00;100472.91;5056547;28;20063;-77
2022/12/09 10:59:23;;;;;;;50.35;29.20;;;;;;;6.87;100.00;100598.47;5054899;28;20052;-77
2022/12/09 11:02:08;;;;;;;57.17;26.88;;;;;;;6.28;100.00;100484.44;5044842;28;20077;-77
2022/12/09 11:04:41;;;;;;;55.22;29.35;;;;;;;6.95;100.00;100587.34;5047133;28;20048;-77
2022/12/09 11:07:24;;;;;;;73.72;39.10;;;;;;;5.76;100.00;100358.41;5004079;28;20045;-77
2022/12/09 11:09:56;;;;;;;67.75;39.83;;;;;;;7.13;100.00;100567.63;5028922;28;20289;-77
2022/12/09 11:12:27;;;;;;;63.78;35.03;;;;;;;7.18;100.00;100589.44;5025356;28;20095;-76
2022/12/09 11:14:56;;;;;;;74.50;39.80;;;;;;;7.00;100.00;100547.38;5034338;28;20056;-75
2022/12/09 11:17:31;;;;;;;69.68;39.72;;;;;;;6.12;100.00;100369.53;5012961;28;20404;-76
2022/12/09 11:20:14;;;;;;;68.88;34.58;;;;;;;7.32;100.00;100577.50;5022172;28;20049;-77